Time;durP1;ratioP1;P1;durP2;ratioP2;P2;SDS_P1;SDS_P2;PMS_P1;PMS_P2;Temp;Humidity;BMP_temperature;BMP_pressure;BME280_temperature;BME280_humidity;BME280_pressure;Samples;Min_cycle;Max_cycle;Signal;HPM_P1;HPM_P2
2022/03/02 00:01:12;;;;;;;7.28;3.67;;;;;;;2.20;39.42;100527.41;5336383;26;33278;-85
2022/03/02 00:03:41;;;;;;;8.52;3.75;;;;;;;2.38;39.05;100522.06;5341344;26;33075;-86
2022/03/02 00:06:10;;;;;;;7.37;3.37;;;;;;;2.47;39.22;100527.47;5335654;26;33888;-87
2022/03/02 00:08:39;;;;;;;7.60;3.50;;;;;;;2.43;39.24;100523.06;5335957;26;33761;-85
2022/03/02 00:11:11;;;;;;;6.00;3.87;;;;;;;2.28;39.45;100510.63;5335898;26;33020;-86
2022/03/02 00:13:40;;;;;;;8.43;4.78;;;;;;;2.33;39.69;100511.66;5335730;26;33510;-86
2022/03/02 00:16:09;;;;;;;4.40;3.35;;;;;;;2.32;39.60;100510.78;5341604;26;34940;-86
2022/03/02 00:18:38;;;;;;;9.05;3.03;;;;;;;2.51;39.40;100512.28;5336118;26;33164;-85
2022/03/02 00:21:07;;;;;;;7.22;3.90;;;;;;;2.41;39.74;100512.75;5335296;26;33895;-85
2022/03/02 00:23:36;;;;;;;6.07;3.55;;;;;;;2.32;39.72;100518.47;5335865;26;34004;-85
2022/03/02 00:26:04;;;;;;;6.45;3.87;;;;;;;2.33;39.77;100507.41;5335047;26;33967;-86
2022/03/02 00:28:35;;;;;;;6.18;3.42;;;;;;;2.42;39.87;100511.97;5338290;26;33989;-86
2022/03/02 00:31:04;;;;;;;3.97;2.95;;;;;;;2.46;39.60;100510.34;5335585;26;34230;-86
2022/03/02 00:33:33;;;;;;;6.57;3.25;;;;;;;2.20;40.10;100510.38;5336135;26;33384;-86
2022/03/02 00:36:01;;;;;;;4.37;2.97;;;;;;;2.14;40.63;100505.91;5335689;26;32864;-86
2022/03/02 00:38:30;;;;;;;6.80;3.50;;;;;;;1.95;41.35;100505.22;5335800;26;33942;-85
2022/03/02 00:40:59;;;;;;;4.95;3.45;;;;;;;2.10;41.32;100504.09;5340416;26;33897;-85
2022/03/02 00:43:28;;;;;;;6.72;3.12;;;;;;;2.08;41.65;100502.28;5340811;26;34163;-87
2022/03/02 00:45:58;;;;;;;8.43;3.33;;;;;;;1.96;41.53;100487.38;5335902;26;34419;-85
2022/03/02 00:48:28;;;;;;;4.62;2.90;;;;;;;1.93;40.95;100484.69;5336486;26;36282;-85
2022/03/02 00:50:57;;;;;;;8.15;4.30;;;;;;;2.03;40.52;100483.31;5335728;26;33151;-84
2022/03/02 00:53:26;;;;;;;6.65;4.05;;;;;;;1.97;40.38;100478.00;5315209;26;32477;-85
2022/03/02 00:55:54;;;;;;;4.47;2.87;;;;;;;1.83;40.61;100482.66;5341250;26;34019;-85
2022/03/02 00:58:23;;;;;;;4.93;2.67;;;;;;;1.67;40.65;100478.69;5336399;26;33623;-85
2022/03/02 01:00:52;;;;;;;4.60;3.12;;;;;;;1.81;40.31;100462.16;5336576;26;33447;-86
2022/03/02 01:03:22;;;;;;;7.43;3.17;;;;;;;1.77;40.25;100461.97;5336703;26;33558;-84
2022/03/02 01:05:51;;;;;;;4.73;2.73;;;;;;;1.90;39.33;100459.88;5336713;26;32712;-85
2022/03/02 01:08:20;;;;;;;11.32;3.85;;;;;;;1.58;39.83;100460.47;5342439;26;33925;-85
2022/03/02 01:10:49;;;;;;;4.70;3.05;;;;;;;1.68;39.83;100449.72;5334126;26;33627;-85
2022/03/02 01:13:18;;;;;;;4.30;2.90;;;;;;;1.55;40.47;100452.66;5333776;26;33170;-85
2022/03/02 01:15:46;;;;;;;6.20;3.20;;;;;;;1.75;40.11;100445.72;5336227;26;34018;-86
2022/03/02 01:18:15;;;;;;;5.12;2.83;;;;;;;1.68;40.08;100444.63;5336726;26;33949;-86
2022/03/02 01:20:46;;;;;;;2.95;2.72;;;;;;;1.70;39.70;100446.41;5342089;26;33284;-84
2022/03/02 01:23:14;;;;;;;6.40;3.27;;;;;;;1.53;40.30;100438.97;5336118;26;32991;-84
2022/03/02 01:25:43;;;;;;;3.78;2.70;;;;;;;1.42;40.24;100438.56;5336295;26;33934;-86
2022/03/02 01:28:12;;;;;;;6.07;3.58;;;;;;;1.67;39.84;100430.97;5336921;26;32967;-87
2022/03/02 01:30:41;;;;;;;4.32;3.08;;;;;;;1.65;39.88;100424.06;5336885;26;33453;-85
2022/03/02 01:33:10;;;;;;;4.35;2.70;;;;;;;1.67;39.81;100427.53;5338726;26;33699;-85
2022/03/02 01:35:39;;;;;;;4.47;2.78;;;;;;;1.65;39.82;100426.63;5342695;26;33917;-84
2022/03/02 01:38:11;;;;;;;3.37;2.97;;;;;;;1.69;39.56;100421.66;5337626;26;34611;-84
2022/03/02 01:40:40;;;;;;;5.97;3.12;;;;;;;1.73;39.28;100426.87;5336952;26;32340;-85
2022/03/02 01:43:09;;;;;;;3.42;2.70;;;;;;;1.64;39.46;100422.31;5336718;26;33890;-84
2022/03/02 01:45:38;;;;;;;2.50;2.30;;;;;;;1.57;39.46;100417.78;5336860;26;33969;-85
2022/03/02 01:48:07;;;;;;;5.43;3.40;;;;;;;1.32;40.05;100418.62;5343249;26;33410;-85
2022/03/02 01:50:36;;;;;;;9.85;3.83;;;;;;;1.42;39.96;100410.47;5337082;26;34104;-86
2022/03/02 01:53:05;;;;;;;3.50;2.70;;;;;;;1.11;40.55;100409.34;5317000;26;32348;-86
2022/03/02 01:55:35;;;;;;;3.35;2.62;;;;;;;1.34;40.31;100406.78;5337417;26;33682;-84
2022/03/02 01:58:04;;;;;;;7.10;3.20;;;;;;;1.34;40.02;100411.88;5337334;26;33198;-85
2022/03/02 02:00:33;;;;;;;3.78;2.58;;;;;;;1.19;40.45;100414.78;5343268;26;34039;-85
2022/03/02 02:03:02;;;;;;;4.95;2.65;;;;;;;1.33;40.06;100411.03;5337437;26;34092;-86
2022/03/02 02:05:31;;;;;;;4.28;3.10;;;;;;;1.44;39.81;100409.69;5317407;26;33772;-84
2022/03/02 02:07:59;;;;;;;3.55;2.75;;;;;;;1.26;40.27;100409.94;5337485;26;33567;-84
2022/03/02 02:10:29;;;;;;;4.62;3.22;;;;;;;1.28;40.19;100415.06;5320028;26;31999;-86
2022/03/02 02:12:59;;;;;;;3.17;2.85;;;;;;;1.21;40.32;100411.44;5342873;26;34319;-86
2022/03/02 02:15:31;;;;;;;8.25;3.80;;;;;;;1.13;40.63;100404.31;5323035;26;32812;-84
2022/03/02 02:17:59;;;;;;;4.47;3.12;;;;;;;1.19;40.41;100407.09;5337191;26;33897;-86
2022/03/02 02:20:36;;;;;;;9.50;3.62;;;;;;;0.95;40.76;100401.97;5336600;26;33486;-86
2022/03/02 02:23:08;;;;;;;2.65;2.45;;;;;;;1.20;40.48;100399.47;5337287;26;34590;-85
2022/03/02 02:25:37;;;;;;;;;;;;;;;1.16;40.58;100395.09;5337923;26;34675;-86
2022/03/02 02:28:06;;;;;;;5.15;3.30;;;;;;;1.09;40.71;100395.69;5343612;26;34846;-86
2022/03/02 02:30:34;;;;;;;4.28;3.37;;;;;;;1.25;40.54;100403.06;5337891;26;33341;-84
2022/03/02 02:33:03;;;;;;;4.25;3.03;;;;;;;1.20;40.73;100398.59;5337743;26;33847;-85
2022/03/02 02:35:32;;;;;;;5.18;3.35;;;;;;;1.14;40.59;100404.38;5337330;26;34749;-84
2022/03/02 02:38:02;;;;;;;5.78;2.95;;;;;;;1.14;40.52;100401.81;5336876;26;34073;-85
2022/03/02 02:40:31;;;;;;;3.80;2.62;;;;;;;1.10;40.89;100397.41;5342996;26;32688;-86
2022/03/02 02:43:00;;;;;;;2.72;2.40;;;;;;;1.05;40.89;100399.78;5337220;26;33932;-86
2022/03/02 02:45:29;;;;;;;4.78;3.42;;;;;;;1.11;40.88;100396.56;5337346;26;34323;-86
2022/03/02 02:47:58;;;;;;;5.10;3.50;;;;;;;1.09;40.77;100405.91;5337914;26;33089;-85
2022/03/02 02:50:29;;;;;;;4.00;3.42;;;;;;;0.91;41.05;100400.97;5335679;26;33412;-84
2022/03/02 02:53:00;;;;;;;6.65;3.47;;;;;;;0.91;41.26;100397.53;5340063;26;33553;-86
2022/03/02 02:55:31;;;;;;;4.37;3.25;;;;;;;1.00;41.11;100400.44;5342340;26;34799;-85
2022/03/02 02:58:00;;;;;;;3.97;3.35;;;;;;;0.79;41.45;100403.06;5337228;26;34483;-86
2022/03/02 03:00:31;;;;;;;7.40;3.17;;;;;;;0.90;41.49;100403.47;5336662;26;33610;-86
2022/03/02 03:03:01;;;;;;;5.18;3.03;;;;;;;0.90;41.52;100400.94;5337046;26;33483;-84
2022/03/02 03:05:32;;;;;;;2.85;2.65;;;;;;;0.76;41.69;100401.25;5342850;26;33936;-84
2022/03/02 03:08:02;;;;;;;6.15;3.45;;;;;;;0.83;41.72;100407.47;5336487;26;33796;-84
2022/03/02 03:10:35;;;;;;;7.30;3.33;;;;;;;0.94;41.46;100403.63;5333237;26;33169;-86
2022/03/02 03:13:04;;;;;;;5.47;3.28;;;;;;;0.80;41.75;100409.94;5330779;26;34712;-83
2022/03/02 03:15:34;;;;;;;4.10;2.97;;;;;;;0.84;41.79;100396.44;5335431;26;33771;-83
2022/03/02 03:18:03;;;;;;;6.78;3.65;;;;;;;0.76;42.29;100401.25;5336704;26;33641;-85
2022/03/02 03:20:31;;;;;;;3.80;3.20;;;;;;;0.80;42.12;100397.16;5342432;26;33966;-85
2022/03/02 03:23:01;;;;;;;6.82;2.78;;;;;;;0.62;42.27;100398.19;5337355;26;34677;-84
2022/03/02 03:25:29;;;;;;;3.03;2.45;;;;;;;0.65;42.46;100405.09;5337165;26;34045;-84
2022/03/02 03:27:59;;;;;;;4.55;2.80;;;;;;;0.61;42.84;100406.66;5337076;26;33683;-85
2022/03/02 03:30:29;;;;;;;6.80;3.05;;;;;;;0.71;42.67;100404.47;5337119;26;32975;-84
2022/03/02 03:32:58;;;;;;;5.12;3.33;;;;;;;0.38;43.55;100400.66;5343304;26;35405;-86
2022/03/02 03:35:29;;;;;;;5.55;3.28;;;;;;;0.64;42.58;100400.81;5337444;26;33913;-86
2022/03/02 03:37:58;;;;;;;5.23;3.40;;;;;;;0.69;42.64;100401.84;5337130;26;33691;-84
2022/03/02 03:40:26;;;;;;;6.30;3.83;;;;;;;0.68;42.19;100402.69;5336752;26;32934;-86
2022/03/02 03:42:57;;;;;;;3.60;2.60;;;;;;;0.40;42.70;100400.72;5337060;26;33791;-86
2022/03/02 03:45:27;;;;;;;3.92;2.95;;;;;;;0.80;41.87;100398.03;5343012;26;33885;-84
2022/03/02 03:47:56;;;;;;;3.20;2.65;;;;;;;0.59;42.32;100397.22;5337217;26;33534;-84
2022/03/02 03:50:25;;;;;;;4.00;2.72;;;;;;;0.69;42.13;100398.44;5337093;26;33428;-83
2022/03/02 03:52:54;;;;;;;3.70;3.17;;;;;;;0.75;41.97;100398.66;5336778;26;33918;-84
2022/03/02 03:55:24;;;;;;;2.60;2.30;;;;;;;0.59;42.32;100384.44;5335069;26;33871;-85
2022/03/02 03:57:53;;;;;;;4.30;3.25;;;;;;;0.61;42.31;100388.78;5337191;26;33828;-85
2022/03/02 04:00:22;;;;;;;3.97;2.80;;;;;;;0.51;42.74;100391.81;5342129;26;33459;-84
2022/03/02 04:02:52;;;;;;;3.15;2.85;;;;;;;0.44;42.80;100386.41;5337034;26;34008;-85
2022/03/02 04:05:21;;;;;;;4.95;2.72;;;;;;;0.44;43.15;100387.28;5337080;26;34230;-84
2022/03/02 04:07:50;;;;;;;4.78;3.42;;;;;;;0.40;43.10;100386.28;5337109;26;34060;-84
2022/03/02 04:10:19;;;;;;;3.00;2.62;;;;;;;0.36;43.53;100383.53;5336970;26;33422;-83
2022/03/02 04:12:47;;;;;;;5.37;3.28;;;;;;;0.42;43.58;100386.34;5342553;26;34696;-84
2022/03/02 04:15:18;;;;;;;9.13;3.95;;;;;;;0.31;43.74;100380.81;5336912;26;34414;-85
2022/03/02 04:17:48;;;;;;;4.75;3.45;;;;;;;0.58;43.23;100377.56;5336979;26;34261;-84
2022/03/02 04:20:17;;;;;;;6.55;3.62;;;;;;;0.33;43.49;100388.53;5336593;26;33301;-85
2022/03/02 04:22:47;;;;;;;4.47;3.30;;;;;;;0.22;43.71;100380.47;5329405;26;33106;-84
2022/03/02 04:25:15;;;;;;;9.18;3.40;;;;;;;0.26;43.59;100382.31;5342538;26;33885;-85
2022/03/02 04:27:44;;;;;;;3.22;2.92;;;;;;;0.34;43.51;100382.59;5336818;26;33795;-85
2022/03/02 04:30:14;;;;;;;4.20;3.03;;;;;;;0.38;43.60;100376.81;5335401;26;33337;-85
2022/03/02 04:32:43;;;;;;;6.20;3.37;;;;;;;0.31;43.64;100387.59;5337002;26;33745;-86
2022/03/02 04:35:13;;;;;;;6.45;3.78;;;;;;;0.29;43.62;100381.56;5336701;26;34420;-84
2022/03/02 04:37:43;;;;;;;3.10;2.80;;;;;;;0.36;43.70;100379.34;5339634;26;33840;-84
2022/03/02 04:40:14;;;;;;;4.45;3.45;;;;;;;0.16;44.11;100375.13;5343006;26;32596;-85
2022/03/02 04:42:43;;;;;;;4.53;2.92;;;;;;;0.18;43.91;100374.38;5336210;26;34077;-83
2022/03/02 04:45:13;;;;;;;4.80;3.47;;;;;;;0.40;43.57;100370.09;5336719;26;34041;-85
2022/03/02 04:47:42;;;;;;;3.65;3.00;;;;;;;0.27;44.20;100360.25;5337049;26;34141;-85
2022/03/02 04:50:12;;;;;;;4.32;3.05;;;;;;;0.42;44.00;100366.78;5337032;26;34090;-85
2022/03/02 04:52:42;;;;;;;4.10;2.75;;;;;;;0.16;44.55;100364.91;5342399;26;33694;-83
2022/03/02 04:55:12;;;;;;;8.60;4.03;;;;;;;0.26;44.53;100361.91;5336800;26;34353;-84
2022/03/02 04:57:43;;;;;;;6.18;3.30;;;;;;;0.34;44.38;100365.63;5336450;26;34642;-85
2022/03/02 05:00:14;;;;;;;5.78;3.28;;;;;;;0.27;44.65;100361.09;5336559;26;34172;-83
2022/03/02 05:02:43;;;;;;;5.25;3.62;;;;;;;0.66;43.52;100358.34;5337105;26;34719;-84
2022/03/02 05:05:13;;;;;;;2.70;2.50;;;;;;;0.40;44.18;100357.34;5342493;26;34798;-83
2022/03/02 05:07:45;;;;;;;3.28;2.70;;;;;;;0.30;44.14;100351.00;5337774;26;34010;-85
2022/03/02 05:10:15;;;;;;;3.70;2.80;;;;;;;0.28;44.30;100350.06;5336517;26;33137;-86
2022/03/02 05:12:44;;;;;;;7.95;3.47;;;;;;;0.26;44.21;100346.59;5336285;26;33911;-85
2022/03/02 05:15:14;;;;;;;3.22;2.72;;;;;;;0.37;44.21;100357.22;5316771;26;33511;-83
2022/03/02 05:17:43;;;;;;;3.08;2.70;;;;;;;0.29;43.88;100353.50;5335701;26;34233;-85
2022/03/02 05:20:14;;;;;;;6.22;3.35;;;;;;;0.31;43.92;100351.88;5341942;26;34171;-85
2022/03/02 05:22:44;;;;;;;5.10;3.50;;;;;;;0.43;44.25;100357.44;5336436;26;33008;-83
2022/03/02 05:25:15;;;;;;;3.25;2.58;;;;;;;0.36;44.00;100358.03;5336766;26;34670;-85
2022/03/02 05:27:45;;;;;;;4.32;3.35;;;;;;;0.32;44.24;100357.06;5334689;26;33646;-85
2022/03/02 05:30:17;;;;;;;4.10;3.20;;;;;;;0.10;44.76;100350.25;5336636;26;33437;-83
2022/03/02 05:32:46;;;;;;;7.28;3.35;;;;;;;0.25;44.44;100346.56;5341410;26;33732;-84
2022/03/02 05:35:15;;;;;;;3.47;3.00;;;;;;;0.22;44.88;100344.75;5336314;26;33983;-85
2022/03/02 05:37:45;;;;;;;4.15;3.12;;;;;;;0.35;44.82;100352.06;5335805;26;34001;-86
2022/03/02 05:40:17;;;;;;;4.20;3.27;;;;;;;0.30;44.69;100348.47;5336445;26;32442;-86
2022/03/02 05:42:53;;;;;;;4.85;2.87;;;;;;;0.36;45.23;100355.47;5336369;26;34836;-85
2022/03/02 05:45:22;;;;;;;4.70;3.60;;;;;;;0.31;45.03;100350.19;5337031;26;32876;-84
2022/03/02 05:47:51;;;;;;;6.50;3.67;;;;;;;0.42;44.84;100355.72;5343625;26;33902;-86
2022/03/02 05:50:20;;;;;;;3.97;3.03;;;;;;;0.48;44.96;100352.53;5316799;26;32677;-85
2022/03/02 05:53:08;;;;;;;6.55;3.62;;;;;;;0.52;44.75;100352.69;5339550;26;33821;-87
2022/03/02 05:55:37;;;;;;;4.30;3.22;;;;;;;0.42;44.99;100351.47;5337575;26;34001;-84
2022/03/02 05:58:06;;;;;;;5.22;4.00;;;;;;;0.49;45.11;100355.13;5336503;26;33648;-83
2022/03/02 06:00:37;;;;;;;5.75;3.85;;;;;;;0.46;45.22;100349.03;5337466;26;33388;-83
2022/03/02 06:03:06;;;;;;;4.78;3.33;;;;;;;0.33;45.43;100343.47;5342956;26;34659;-86
2022/03/02 06:05:35;;;;;;;6.70;3.65;;;;;;;0.71;44.50;100343.19;5336764;26;34423;-84
2022/03/02 06:08:07;;;;;;;4.50;2.90;;;;;;;0.44;45.00;100343.88;5336199;26;34135;-84
2022/03/02 06:10:37;;;;;;;3.65;2.65;;;;;;;0.56;45.04;100346.03;5337046;26;33886;-83
2022/03/02 06:13:07;;;;;;;5.72;3.58;;;;;;;0.35;45.21;100349.50;5337033;26;34556;-84
2022/03/02 06:15:36;;;;;;;4.50;3.33;;;;;;;0.65;44.89;100343.81;5342529;26;34842;-83
2022/03/02 06:18:05;;;;;;;3.58;2.83;;;;;;;0.73;44.87;100339.88;5334224;26;34565;-85
2022/03/02 06:20:35;;;;;;;4.28;3.20;;;;;;;0.85;44.48;100339.44;5337211;26;33432;-85
2022/03/02 06:23:04;;;;;;;8.30;3.22;;;;;;;0.44;45.44;100351.56;5337081;26;34666;-83
2022/03/02 06:25:36;;;;;;;7.18;3.10;;;;;;;0.44;45.55;100350.69;5335364;26;34000;-84
2022/03/02 06:28:14;;;;;;;6.75;3.42;;;;;;;0.57;45.27;100347.78;5342479;26;34225;-84
2022/03/02 06:30:43;;;;;;;7.18;3.15;;;;;;;0.41;45.54;100351.41;5341624;26;32771;-85
2022/03/02 06:33:16;;;;;;;4.70;3.53;;;;;;;0.92;44.90;100345.63;5336105;26;33522;-84
2022/03/02 06:35:45;;;;;;;3.47;3.05;;;;;;;0.74;45.26;100351.81;5336524;26;32888;-84
2022/03/02 06:38:14;;;;;;;4.15;3.05;;;;;;;0.74;45.24;100346.69;5337579;26;34323;-85
2022/03/02 06:40:57;;;;;;;7.00;3.62;;;;;;;0.74;45.52;100350.94;5336604;26;33405;-83
2022/03/02 06:43:34;;;;;;;9.10;3.67;;;;;;;0.98;44.87;100358.63;5342885;26;34043;-83
2022/03/02 06:46:07;;;;;;;6.97;3.35;;;;;;;1.03;44.86;100357.12;5342218;26;34601;-84
2022/03/02 06:48:43;;;;;;;9.95;4.40;;;;;;;1.02;44.98;100357.94;5336426;26;33804;-83
2022/03/02 06:51:13;;;;;;;6.35;3.87;;;;;;;1.13;44.34;100351.50;5336408;26;32660;-83
2022/03/02 06:53:45;;;;;;;8.20;3.85;;;;;;;1.36;43.72;100349.78;5336824;26;34617;-85
2022/03/02 06:56:19;;;;;;;7.80;4.07;;;;;;;1.28;43.93;100346.94;5336446;26;34156;-85
2022/03/02 06:58:54;;;;;;;10.18;3.72;;;;;;;1.50;43.20;100350.25;5338484;26;33606;-84
2022/03/02 07:01:26;;;;;;;4.50;3.12;;;;;;;1.49;43.37;100351.03;5340355;26;32580;-83
2022/03/02 07:03:58;;;;;;;9.00;3.47;;;;;;;1.77;42.77;100342.63;5334394;26;33773;-84
2022/03/02 07:06:29;;;;;;;5.18;3.17;;;;;;;1.92;42.29;100340.53;5336274;26;33577;-86
2022/03/02 07:08:58;;;;;;;4.03;2.87;;;;;;;1.91;42.02;100340.50;5336057;26;34060;-85
2022/03/02 07:11:28;;;;;;;4.75;3.50;;;;;;;2.12;41.55;100345.41;5336796;26;32855;-88
2022/03/02 07:14:00;;;;;;;7.55;4.20;;;;;;;2.30;41.14;100343.44;5341715;26;34653;-84
2022/03/02 07:16:29;;;;;;;4.07;2.87;;;;;;;2.12;41.86;100338.59;5336806;26;34680;-85
2022/03/02 07:18:58;;;;;;;4.30;3.00;;;;;;;2.46;41.02;100336.22;5336690;26;33485;-86
2022/03/02 07:21:29;;;;;;;4.12;3.25;;;;;;;2.41;41.16;100336.06;5337322;26;33408;-85
2022/03/02 07:24:11;;;;;;;4.65;3.05;;;;;;;2.49;41.30;100329.50;5337032;26;33350;-85
2022/03/02 07:26:45;;;;;;;5.70;3.50;;;;;;;2.85;40.15;100331.41;5337196;26;33904;-84
2022/03/02 07:29:15;;;;;;;8.60;3.08;;;;;;;2.70;40.69;100320.69;5342455;26;34611;-87
2022/03/02 07:31:45;;;;;;;4.30;2.90;;;;;;;2.66;40.74;100322.31;5337288;26;32891;-87
2022/03/02 07:34:20;;;;;;;6.07;2.92;;;;;;;3.00;40.12;100320.69;5337334;26;33935;-86
2022/03/02 07:36:49;;;;;;;4.70;3.33;;;;;;;2.96;40.43;100314.59;5336924;26;36207;-87
2022/03/02 07:39:20;;;;;;;4.97;2.92;;;;;;;3.10;39.70;100315.00;5336308;26;33483;-86
2022/03/02 07:41:50;;;;;;;5.47;3.08;;;;;;;3.01;40.12;100324.13;5336568;26;33376;-87
2022/03/02 07:44:19;;;;;;;10.23;3.62;;;;;;;3.00;39.99;100315.56;5342514;26;33946;-85
2022/03/02 07:46:48;;;;;;;5.53;3.22;;;;;;;2.76;40.88;100324.31;5336376;26;34778;-87
2022/03/02 07:49:17;;;;;;;4.03;3.17;;;;;;;3.24;40.12;100319.59;5337077;26;33935;-87
2022/03/02 07:51:48;;;;;;;7.05;3.45;;;;;;;3.20;40.15;100318.66;5337096;26;34163;-86
2022/03/02 07:54:18;;;;;;;4.40;3.50;;;;;;;3.42;39.54;100312.41;5337044;26;33640;-87
2022/03/02 07:56:47;;;;;;;2.75;2.30;;;;;;;3.18;40.57;100313.50;5342642;26;34072;-86
2022/03/02 07:59:17;;;;;;;5.97;3.78;;;;;;;3.40;40.07;100303.78;5334519;26;34273;-88
2022/03/02 08:01:46;;;;;;;4.10;2.60;;;;;;;3.48;39.64;100299.75;5335464;26;32275;-87
2022/03/02 08:04:15;;;;;;;3.45;2.75;;;;;;;3.65;39.39;100302.72;5335819;26;33475;-88
2022/03/02 08:06:44;;;;;;;3.55;2.67;;;;;;;3.76;39.37;100306.41;5335989;26;33597;-86
2022/03/02 08:09:13;;;;;;;5.05;2.95;;;;;;;3.93;38.90;100298.25;5341880;26;33960;-89
2022/03/02 08:11:42;;;;;;;4.78;2.90;;;;;;;4.10;38.49;100296.94;5336527;26;34194;-86
2022/03/02 08:14:10;;;;;;;3.80;2.75;;;;;;;3.88;38.76;100290.44;5337386;26;33767;-87
2022/03/02 08:16:54;;;;;;;5.12;3.35;;;;;;;3.92;39.17;100292.25;5336128;26;33649;-87
2022/03/02 08:19:37;;;;;;;3.65;2.53;;;;;;;4.11;38.22;100285.84;5313077;26;34529;-86
2022/03/02 08:22:11;;;;;;;4.28;2.87;;;;;;;3.92;39.16;100287.13;5333693;26;33036;-86
2022/03/02 08:24:43;;;;;;;5.45;2.55;;;;;;;4.13;38.92;100280.72;5339754;26;33936;-87
2022/03/02 08:27:14;;;;;;;4.03;2.58;;;;;;;4.24;38.01;100279.25;5334372;26;34753;-86
2022/03/02 08:29:44;;;;;;;5.28;3.03;;;;;;;3.86;38.87;100276.69;5334601;26;34350;-86
2022/03/02 08:32:15;;;;;;;4.37;3.20;;;;;;;4.22;38.47;100275.78;5334498;26;33063;-88
2022/03/02 08:34:44;;;;;;;3.20;2.30;;;;;;;4.19;38.56;100271.47;5314711;26;33287;-87
2022/03/02 08:37:14;;;;;;;6.68;3.10;;;;;;;4.17;38.63;100265.41;5341141;26;34040;-89
2022/03/02 08:39:43;;;;;;;2.85;2.53;;;;;;;4.23;38.87;100272.41;5335043;26;34309;-86
2022/03/02 08:42:12;;;;;;;6.03;2.85;;;;;;;4.44;38.78;100264.28;5334563;26;33806;-88
2022/03/02 08:44:45;;;;;;;2.90;2.45;;;;;;;4.66;37.73;100252.72;5334802;26;33681;-86
2022/03/02 08:47:16;;;;;;;3.90;2.78;;;;;;;4.36;38.57;100248.69;5334925;26;33914;-86
2022/03/02 08:49:46;;;;;;;5.20;2.67;;;;;;;4.38;38.90;100252.19;5337604;26;33911;-90
2022/03/02 08:52:15;;;;;;;4.03;2.75;;;;;;;4.72;38.37;100255.44;5339736;26;33511;-87
2022/03/02 08:54:46;;;;;;;4.68;3.17;;;;;;;5.20;37.46;100253.75;5334578;26;34427;-87
2022/03/02 08:57:16;;;;;;;2.72;2.12;;;;;;;5.28;36.60;100250.44;5334404;26;34755;-87
2022/03/02 08:59:46;;;;;;;3.83;2.60;;;;;;;4.98;37.05;100247.31;5334662;26;34483;-88
2022/03/02 09:02:19;;;;;;;3.60;2.33;;;;;;;4.90;37.54;100235.22;5333838;26;32997;-87
2022/03/02 09:04:48;;;;;;;3.97;2.67;;;;;;;5.20;37.10;100246.03;5340075;26;33920;-87
2022/03/02 09:07:18;;;;;;;3.72;2.75;;;;;;;4.98;37.00;100239.59;5313711;26;33157;-88
2022/03/02 09:09:47;;;;;;;4.05;2.80;;;;;;;5.06;36.79;100235.50;5333134;26;33397;-88
2022/03/02 09:12:16;;;;;;;2.70;2.30;;;;;;;5.01;37.34;100234.53;5335830;26;33473;-87
2022/03/02 09:14:47;;;;;;;2.78;2.35;;;;;;;5.11;36.82;100236.44;5336309;26;34657;-88
2022/03/02 09:17:19;;;;;;;3.47;2.72;;;;;;;5.16;37.38;100229.66;5339469;26;33195;-86
2022/03/02 09:19:49;;;;;;;5.90;2.85;;;;;;;5.40;36.97;100234.34;5336861;26;34464;-88
2022/03/02 09:22:22;;;;;;;4.07;2.75;;;;;;;5.46;36.85;100239.63;5334705;26;34240;-87
2022/03/02 09:24:51;;;;;;;2.45;2.05;;;;;;;5.90;35.74;100223.97;5323934;26;164282;-87
2022/03/02 09:27:27;;;;;;;2.30;2.05;;;;;;;5.68;36.23;100221.94;5319905;26;34492;-88
2022/03/02 09:30:02;;;;;;;2.50;2.30;;;;;;;5.62;35.13;100230.41;5314080;26;33648;-88
2022/03/02 09:32:34;;;;;;;3.15;2.37;;;;;;;5.45;35.49;100217.28;5341023;26;33120;-89
2022/03/02 09:35:16;;;;;;;4.28;2.97;;;;;;;5.60;35.76;100216.66;5338371;26;35561;-87
2022/03/02 09:37:49;;;;;;;2.30;1.90;;;;;;;5.86;34.83;100211.91;5334501;26;33592;-87
2022/03/02 09:40:24;;;;;;;2.30;2.10;;;;;;;5.70;35.10;100215.06;5335127;26;34060;-87
2022/03/02 09:42:58;;;;;;;2.15;1.90;;;;;;;6.17;34.71;100212.34;5335531;26;33131;-88
2022/03/02 09:45:28;;;;;;;2.90;2.20;;;;;;;6.23;34.62;100211.56;5335598;26;33122;-86
2022/03/02 09:48:00;;;;;;;2.10;1.90;;;;;;;6.36;33.66;100216.03;5341213;26;33970;-89
2022/03/02 09:50:32;;;;;;;2.65;2.10;;;;;;;6.36;34.05;100208.31;5339634;26;33809;-90
2022/03/02 09:53:02;;;;;;;4.18;2.40;;;;;;;6.36;33.53;100210.88;5337030;26;33139;-87
2022/03/02 09:55:31;;;;;;;3.12;2.20;;;;;;;6.20;34.15;100204.66;5334241;26;33122;-89
2022/03/02 09:58:01;;;;;;;4.55;2.28;;;;;;;6.61;33.35;100206.87;5335116;26;34804;-89
2022/03/02 10:00:32;;;;;;;4.68;2.83;;;;;;;6.67;33.26;100195.75;5336127;26;34497;-87
2022/03/02 10:03:03;;;;;;;2.92;2.22;;;;;;;6.63;33.66;100198.28;5321713;26;32646;-89
2022/03/02 10:05:33;;;;;;;2.87;2.05;;;;;;;6.51;33.97;100199.87;5336181;26;33637;-88
2022/03/02 10:08:07;;;;;;;3.80;2.53;;;;;;;6.58;33.29;100191.38;5335562;26;34292;-90
2022/03/02 10:10:38;;;;;;;7.93;2.53;;;;;;;6.74;33.17;100193.28;5339722;26;33530;-88
2022/03/02 10:13:16;;;;;;;2.78;2.17;;;;;;;6.52;33.71;100180.97;5337051;26;33460;-89
2022/03/02 10:15:46;;;;;;;4.00;2.35;;;;;;;6.91;33.06;100175.38;5336590;26;32696;-89
2022/03/02 10:18:19;;;;;;;3.22;2.25;;;;;;;6.86;33.31;100183.91;5321850;26;33793;-88
2022/03/02 10:20:53;;;;;;;4.30;2.22;;;;;;;6.88;33.04;100179.63;5337070;26;34534;-89
2022/03/02 10:23:40;;;;;;;3.67;2.53;;;;;;;6.99;33.05;100175.44;5336813;26;34021;-89
2022/03/02 10:26:16;;;;;;;3.95;2.40;;;;;;;7.35;31.79;100161.12;5337068;26;33477;-89
2022/03/02 10:28:55;;;;;;;7.03;3.05;;;;;;;7.30;31.47;100165.38;5338334;26;33551;-88
2022/03/02 10:31:40;;;;;;;4.28;2.67;;;;;;;7.64;30.50;100163.91;5336814;26;33808;-89
2022/03/02 10:34:28;;;;;;;4.72;2.58;;;;;;;7.38;30.84;100156.84;5337141;26;34566;-88
2022/03/02 10:37:08;;;;;;;4.25;2.62;;;;;;;7.07;31.73;100160.91;5342692;26;33885;-89
2022/03/02 10:39:52;;;;;;;2.92;2.22;;;;;;;7.09;31.68;100161.78;5342126;26;34018;-88
2022/03/02 10:42:23;;;;;;;2.80;2.25;;;;;;;7.22;31.63;100150.72;5337341;26;34607;-89
2022/03/02 10:45:04;;;;;;;3.97;2.47;;;;;;;7.39;31.37;100147.38;5336451;26;33480;-89
2022/03/02 10:47:34;;;;;;;3.03;2.25;;;;;;;7.97;29.95;100139.09;5336609;26;35155;-90
2022/03/02 10:50:05;;;;;;;4.82;2.65;;;;;;;7.90;30.22;100140.78;5337153;26;33308;-90
2022/03/02 10:52:37;;;;;;;3.10;2.47;;;;;;;7.64;30.49;100138.09;5336258;26;33857;-88
2022/03/02 10:55:09;;;;;;;2.95;2.28;;;;;;;7.33;30.98;100124.97;5343201;26;33369;-89
2022/03/02 10:57:39;;;;;;;3.40;2.30;;;;;;;7.56;29.62;100125.09;5336458;26;33612;-90
2022/03/02 11:00:13;;;;;;;3.37;2.67;;;;;;;7.50;29.94;100125.09;5336622;26;34877;-88
2022/03/02 11:02:45;;;;;;;3.40;2.25;;;;;;;7.90;30.37;100113.25;5337136;26;33729;-88
2022/03/02 11:05:17;;;;;;;2.10;1.90;;;;;;;7.43;31.35;100110.41;5337224;26;33074;-88
2022/03/02 11:07:47;;;;;;;3.10;2.50;;;;;;;7.51;30.71;100103.56;5339551;26;33529;-91
2022/03/02 11:10:18;;;;;;;4.78;3.35;;;;;;;7.73;30.15;100103.69;5342826;26;33414;-89
2022/03/02 11:12:49;;;;;;;3.65;2.40;;;;;;;7.45;30.57;100107.00;5336196;26;33973;-88
2022/03/02 11:15:19;;;;;;;3.97;2.37;;;;;;;7.67;30.45;100097.63;5316432;26;31630;-88
2022/03/02 11:17:53;;;;;;;5.78;2.80;;;;;;;7.25;31.40;100103.44;5316681;26;35334;-90
2022/03/02 11:20:24;;;;;;;4.03;3.03;;;;;;;7.59;31.00;100101.91;5337130;26;34081;-89
2022/03/02 11:22:55;;;;;;;;;;;;;;;7.70;30.79;100099.38;5343215;26;34230;-89
2022/03/02 11:25:45;;;;;;;4.03;3.58;;;;;;;8.00;30.83;100084.87;5337281;26;33278;-90
2022/03/02 11:28:17;;;;;;;3.97;2.90;;;;;;;8.25;30.35;100090.97;5337422;26;34590;-89
2022/03/02 11:30:51;;;;;;;3.78;2.03;;;;;;;7.93;30.36;100093.47;5336834;26;34817;-90
2022/03/02 11:33:25;;;;;;;5.80;2.70;;;;;;;7.10;31.85;100080.06;5336832;26;33559;-89
2022/03/02 11:35:59;;;;;;;3.47;2.20;;;;;;;7.12;31.70;100071.50;5336756;26;33344;-89
2022/03/02 11:38:30;;;;;;;3.87;2.30;;;;;;;7.68;31.27;100077.84;5336766;26;33344;-89
2022/03/02 11:41:00;;;;;;;3.28;2.35;;;;;;;8.08;30.60;100067.69;5342624;26;33932;-88
2022/03/02 11:43:31;;;;;;;2.53;2.00;;;;;;;8.29;29.71;100072.91;5337417;26;33538;-90
2022/03/02 11:46:03;;;;;;;5.10;2.87;;;;;;;8.19;29.84;100059.94;5336465;26;33437;-89
2022/03/02 11:48:32;;;;;;;;;;;;;;;8.07;30.10;100055.59;5336494;26;33496;-88
2022/03/02 11:51:12;;;;;;;3.87;2.25;;;;;;;8.32;29.42;100061.72;5336803;26;33817;-88